GPS DATA

Wed Apr 25 05:16:11 2018 APRS[EA3HNX-7]Decoded GPS Auto: LAT(N4132.185) LONG(E00205.02) SPEED(15.) RPT:214302
Wed Apr 25 05:18:38 2018 APRS[EA3HNX-7]Decoded GPS Auto: LAT(N4131.951) LONG(E00205.13) SPEED(6.1) RPT:214302
Wed Apr 25 05:18:41 2018 APRS[EA3HNX-7]Decoded GPS Auto: LAT(N4131.951) LONG(E00205.13) SPEED(6.1) RPT:214302
Wed Apr 25 05:21:08 2018 APRS[EA3HNX-7]Decoded GPS Auto: LAT( X) LONG(D0205.29) SPEED(19.) RPT:214302
Wed Apr 25 05:58:41 2018 APRS[EA3HNX-7]Decoded GPS Auto: LAT(N4131.652) LONG(E00205.47) SPEED(0.6) RPT:214302
Wed Apr 25 05:58:44 2018 APRS[EA3HNX-7]Decoded GPS Auto: LAT(N4131.652) LONG(E00205.47) SPEED(0.6) RPT:214302
Wed Apr 25 06:01:01 2018 APRS[EA3HNX-7]Decoded GPS Auto: LAT(N4131.222) LONG(E00205.82) SPEED(8.4) RPT:214302
Wed Apr 25 06:03:31 2018 APRS[EA3HNX-7]Decoded GPS Auto: LAT(N4130.501) LONG(E00206.37) SPEED(7.6) RPT:214302
Wed Apr 25 06:03:34 2018 APRS[EA3HNX-7]Decoded GPS Auto: LAT(N4130.501) LONG(E00206.37) SPEED(7.6) RPT:214302
Wed Apr 25 06:08:31 2018 APRS[EA3HNX-7]Decoded GPS Auto: LAT(N4130.783) LONG(E00208.54) SPEED(20.) RPT:214302
Wed Apr 25 06:08:33 2018 APRS[EA3HNX-7]Decoded GPS Auto: LAT(N4130.783) LONG(E00208.54) SPEED(20.) RPT:214302
Wed Apr 25 06:13:31 2018 APRS[EA3HNX-7]Decoded GPS Auto: LAT(N4133.002) LONG(E00212.89) SPEED(59.) RPT:214302
Wed Apr 25 04:27:20 2018 APRS[EA3HNX-7]Decoded GPS Auto: LAT(N4134.131) LONG(E00205.48) SPEED(0.0) RPT:214302
Wed Apr 25 04:30:03 2018 APRS[EA3HNX-7]Decoded GPS Auto: LAT(N4134.148) LONG(E00205.49) SPEED(0.5) RPT:214302
Wed Apr 25 04:30:58 2018 APRS[EA3HNX-7]Decoded GPS Auto: LAT(N4134.154) LONG(E00205.48) SPEED(0.0) RPT:214302
Wed Apr 25 04:31:01 2018 APRS[EA3HNX-7]Decoded GPS Auto: LAT(N4134.154) LONG(E00205.48) SPEED(0.0) RPT:214302
Wed Apr 25 04:37:25 2018 APRS[EA3HNX-7]Decoded GPS Auto: LAT(N4134.159) LONG(E00205.44) SPEED(0.0) RPT:214302
Wed Apr 25 05:01:19 2018 APRS[EA3HNX-7]Decoded GPS Auto: LAT(N4133.775) LONG(E00201.58) SPEED(0.0) RPT:214302
Wed Apr 25 05:01:21 2018 APRS[EA3HNX-7]Decoded GPS Auto: LAT(N4133.775) LONG(E00201.58) SPEED(0.0) RPT:214302
Wed Apr 25 05:03:39 2018 APRS[EA3HNX-7]Decoded GPS Auto: LAT(N4133.745) LONG(E00201.65) SPEED(3.7) RPT:214302
Wed Apr 25 05:03:41 2018 APRS[EA3HNX-7]Decoded GPS Auto: LAT(N4133.745) LONG(E00201.65) SPEED(3.7) RPT:214302
Wed Apr 25 05:06:10 2018 APRS[EA3HNX-7]Decoded GPS Auto: LAT(N4133.523) LONG(E00201.73) SPEED(0.0) RPT:214302
Wed Apr 25 05:06:13 2018 APRS[EA3HNX-7]Decoded GPS Auto: LAT(N4133.523) LONG(E00201.73) SPEED(0.0) RPT:214302
Wed Apr 25 05:08:39 2018 APRS[EA3HNX-7]Decoded GPS Auto: LAT(N4133.376) LONG(E00202.40) SPEED(a) RPT:214302
Wed Apr 25 05:08:41 2018 APRS[EA3HNX-7]Decoded GPS Auto: LAT(A05083) LONG(250202.40) SPEED(23.) RPT:214302
Wed Apr 25 05:11:09 2018 APRS[EA3HNX-7]Decoded GPS Auto: LAT(A05110) LONG(250203.59) SPEED(6.9) RPT:214302
Wed Apr 25 05:11:11 2018 APRS[EA3HNX-7]Decoded GPS Auto: LAT(N4133.198) LONG(E00203.59) SPEED(6.9) RPT:214302
Wed Apr 25 05:13:38 2018 APRS[EA3HNX-7]Decoded GPS Auto: LAT(N4132.495) LONG(E00204.22) SPEED(16.) RPT:214302
Wed Apr 25 05:16:09 2018 APRS[EA3HNX-7]Decoded GPS Auto: LAT(N4132.185) LONG(E00205.02) SPEED(15.) RPT:214302